createdAt,value
2018-01-30T00:00:01.475Z,92.61
2018-01-30T00:01:01.457Z,93.08
2018-01-30T00:02:01.447Z,91.00
2018-01-30T00:03:01.436Z,95.65
2018-01-30T00:04:01.436Z,90.71
2018-01-30T00:05:01.413Z,95.07
2018-01-30T00:06:01.401Z,92.90
2018-01-30T00:07:01.388Z,92.33
2018-01-30T00:08:01.380Z,93.18
2018-01-30T00:09:01.374Z,87.87
2018-01-30T00:10:01.358Z,89.00
2018-01-30T00:11:01.345Z,89.29
2018-01-30T00:12:01.335Z,92.71
2018-01-30T00:13:01.328Z,93.37
2018-01-30T00:14:01.316Z,93.65
2018-01-30T00:15:01.304Z,94.70
2018-01-30T00:16:01.292Z,96.22
2018-01-30T00:17:01.282Z,91.94
2018-01-30T00:18:01.271Z,86.72
2018-01-30T00:19:01.276Z,91.28
2018-01-30T00:20:01.256Z,85.59
2018-01-30T00:21:01.250Z,91.47
2018-01-30T00:22:01.236Z,84.64
2018-01-30T00:23:01.214Z,90.24
2018-01-30T00:24:01.208Z,87.30
2018-01-30T00:25:01.203Z,84.17
2018-01-30T00:26:01.206Z,87.01
2018-01-30T00:27:01.174Z,89.86
2018-01-30T00:28:01.160Z,83.22
2018-01-30T00:29:01.150Z,81.51
2018-01-30T00:30:01.142Z,90.05
2018-01-30T00:31:01.139Z,88.91
2018-01-30T00:32:01.117Z,88.43
2018-01-30T00:33:01.105Z,86.07
2018-01-30T00:34:01.093Z,86.72
2018-01-30T00:35:01.086Z,87.49
2018-01-30T00:36:01.076Z,85.97
2018-01-30T00:37:01.069Z,84.92
2018-01-30T00:38:01.052Z,88.15
2018-01-30T00:39:01.044Z,86.07
2018-01-30T00:40:01.035Z,83.50
2018-01-30T00:41:01.018Z,87.96
2018-01-30T00:42:01.009Z,88.72
2018-01-30T00:43:01.018Z,87.49
2018-01-30T00:44:00.987Z,86.54
2018-01-30T00:45:00.981Z,84.92
2018-01-30T00:46:00.974Z,88.53
2018-01-30T00:47:00.952Z,90.43
2018-01-30T00:48:00.945Z,92.33
2018-01-30T00:49:00.949Z,89.76
2018-01-30T00:50:00.925Z,89.10
2018-01-30T00:51:00.911Z,86.91
2018-01-30T00:52:00.901Z,90.14
2018-01-30T00:53:00.886Z,84.45
2018-01-30T00:54:00.883Z,83.97
2018-01-30T00:55:00.876Z,84.17
2018-01-30T00:56:00.864Z,84.45
2018-01-30T00:57:00.847Z,82.84
2018-01-30T00:58:00.836Z,88.06
2018-01-30T00:59:00.823Z,88.24
2018-01-30T01:00:00.812Z,88.06
2018-01-30T01:01:00.805Z,87.01
2018-01-30T01:02:00.794Z,85.97
2018-01-30T01:03:00.779Z,88.53
2018-01-30T01:04:00.782Z,85.68
2018-01-30T01:05:00.811Z,83.31
2018-01-30T01:06:00.759Z,83.12
2018-01-30T01:07:00.735Z,82.84
2018-01-30T01:08:00.725Z,83.36
2018-01-30T01:09:00.723Z,81.85
2018-01-30T01:10:00.704Z,82.27
2018-01-30T01:11:00.690Z,80.71
2018-01-30T01:12:00.699Z,84.88
2018-01-30T01:13:00.673Z,85.26
2018-01-30T01:14:00.663Z,82.60
2018-01-30T01:15:00.650Z,86.02
2018-01-30T01:16:00.641Z,85.83
2018-01-30T01:17:00.627Z,80.90
2018-01-30T01:18:00.637Z,83.65
2018-01-30T01:19:00.606Z,84.31
2018-01-30T01:20:00.614Z,84.31
2018-01-30T01:21:00.587Z,83.84
2018-01-30T01:22:00.568Z,82.98
2018-01-30T01:23:00.574Z,82.70
2018-01-30T01:24:00.573Z,83.55
2018-01-30T01:25:00.539Z,81.37
2018-01-30T01:26:00.529Z,84.98
2018-01-30T01:27:00.518Z,84.03
2018-01-30T01:28:00.505Z,85.36
2018-01-30T01:29:00.525Z,84.41
2018-01-30T01:30:00.495Z,83.65
2018-01-30T01:31:00.472Z,83.46
2018-01-30T01:32:00.462Z,83.94
2018-01-30T01:33:00.450Z,80.80
2018-01-30T01:34:00.445Z,82.60
2018-01-30T01:35:00.442Z,84.12
2018-01-30T01:36:00.418Z,79.66
2018-01-30T01:37:00.452Z,79.85
2018-01-30T01:38:00.413Z,80.62
2018-01-30T01:39:00.382Z,81.75
2018-01-30T01:40:00.374Z,83.36
2018-01-30T01:41:00.381Z,80.04
2018-01-30T01:42:00.349Z,77.20
2018-01-30T01:43:00.349Z,77.86
2018-01-30T01:44:00.333Z,77.29
2018-01-30T01:45:00.320Z,77.39
2018-01-30T01:46:00.371Z,76.73
2018-01-30T01:47:00.300Z,78.72
2018-01-30T01:48:00.293Z,77.48
2018-01-30T01:49:00.282Z,78.34
2018-01-30T01:50:00.304Z,78.34
2018-01-30T01:51:00.250Z,80.24
2018-01-30T01:52:00.252Z,80.43
2018-01-30T01:53:00.240Z,79.28
2018-01-30T01:54:00.220Z,79.57
2018-01-30T01:55:00.207Z,75.96
2018-01-30T01:56:00.193Z,75.96
2018-01-30T01:57:00.182Z,77.39
2018-01-30T01:58:00.176Z,76.25
2018-01-30T01:59:00.159Z,78.30
2018-01-30T02:00:00.150Z,75.17
2018-01-30T02:01:00.161Z,74.69
2018-01-30T02:02:00.124Z,75.84
2018-01-30T02:03:00.112Z,76.31
2018-01-30T02:04:00.121Z,77.64
2018-01-30T02:05:00.091Z,76.59
2018-01-30T02:06:00.081Z,76.59
2018-01-30T02:07:00.079Z,77.92
2018-01-30T02:08:00.068Z,77.25
2018-01-30T02:09:00.048Z,78.67
2018-01-30T02:10:00.072Z,78.58
2018-01-30T02:11:00.032Z,78.39
2018-01-30T02:12:00.017Z,78.77
2018-01-30T02:13:00.005Z,79.72
2018-01-30T02:13:59.986Z,78.39
2018-01-30T02:14:59.976Z,78.77
2018-01-30T02:15:59.995Z,77.25
2018-01-30T02:16:59.953Z,79.25
2018-01-30T02:17:59.944Z,79.53
2018-01-30T02:18:59.929Z,75.93
2018-01-30T02:19:59.925Z,74.13
2018-01-30T02:20:59.911Z,74.22
2018-01-30T02:25:07.732Z,74.79
2018-01-30T02:26:05.224Z,73.84
2018-01-30T02:27:58.936Z,74.03
2018-01-30T02:28:58.892Z,74.22
2018-01-30T02:30:53.375Z,74.03
2018-01-30T02:31:52.861Z,74.41
2018-01-30T02:33:46.558Z,74.03
2018-01-30T02:34:46.457Z,74.56
2018-01-30T02:36:40.168Z,73.90
2018-01-30T02:37:40.125Z,73.80
2018-01-30T02:39:35.044Z,73.27
2018-01-30T02:40:34.210Z,73.46
2018-01-30T02:42:29.141Z,73.99
2018-01-30T02:43:28.535Z,73.14
2018-01-30T02:45:22.172Z,72.77
2018-01-30T02:46:22.128Z,72.67
2018-01-30T02:48:16.633Z,72.48
2018-01-30T02:49:15.801Z,72.29
2018-01-30T02:51:09.431Z,72.29
2018-01-30T02:52:09.432Z,72.57
2018-01-30T03:17:34.063Z,72.38
2018-01-30T03:18:13.031Z,72.67
2018-01-30T03:19:12.981Z,72.67
2018-01-30T03:20:12.981Z,71.72
2018-01-30T03:21:12.967Z,71.62
2018-01-30T03:22:12.951Z,71.72
2018-01-30T03:23:12.950Z,72.00
2018-01-30T03:24:12.941Z,72.29
2018-01-30T03:25:12.916Z,72.29
2018-01-30T03:26:12.904Z,72.00
2018-01-30T03:27:12.896Z,72.19
2018-01-30T03:28:12.880Z,72.57
2018-01-30T03:29:12.883Z,72.48
2018-01-30T03:30:12.877Z,72.67
2018-01-30T03:31:12.846Z,73.24
2018-01-30T03:32:12.834Z,71.91
2018-01-30T03:33:12.824Z,71.44
2018-01-30T03:34:12.808Z,71.53
2018-01-30T03:35:12.807Z,71.81
2018-01-30T03:36:12.791Z,71.53
2018-01-30T03:37:12.792Z,72.16
2018-01-30T03:38:12.784Z,72.67
2018-01-30T03:39:12.747Z,72.10
2018-01-30T03:40:12.746Z,72.19
2018-01-30T03:41:12.747Z,72.16
2018-01-30T03:42:12.721Z,72.48
2018-01-30T03:43:12.705Z,72.25
2018-01-30T03:44:12.693Z,72.57
2018-01-30T03:45:12.679Z,72.77
2018-01-30T03:46:12.697Z,72.48
2018-01-30T03:47:12.653Z,72.48
2018-01-30T03:48:12.644Z,72.57
2018-01-30T03:49:12.633Z,72.96
2018-01-30T03:50:12.622Z,72.57
2018-01-30T03:51:12.619Z,72.48
2018-01-30T03:52:12.602Z,72.19
2018-01-30T03:53:12.583Z,72.53
2018-01-30T03:54:12.573Z,72.29
2018-01-30T03:55:12.562Z,72.82
2018-01-30T03:56:12.553Z,72.82
2018-01-30T03:57:12.541Z,72.53
2018-01-30T03:58:12.524Z,72.48
2018-01-30T03:59:12.515Z,71.97
2018-01-30T04:00:12.505Z,72.34
2018-01-30T04:01:12.485Z,71.97
2018-01-30T04:02:12.483Z,71.50
2018-01-30T04:03:12.478Z,72.16
2018-01-30T04:04:12.454Z,72.06
2018-01-30T04:05:12.440Z,72.25
2018-01-30T04:06:12.459Z,72.92
2018-01-30T04:07:12.420Z,72.06
2018-01-30T04:08:12.417Z,71.97
2018-01-30T04:09:12.410Z,72.06
2018-01-30T04:10:12.380Z,71.50
2018-01-30T04:11:12.367Z,71.50
2018-01-30T04:12:12.356Z,71.69
2018-01-30T04:13:12.364Z,71.50
2018-01-30T04:14:12.340Z,71.69
2018-01-30T04:15:12.320Z,71.50
2018-01-30T04:16:12.308Z,71.59
2018-01-30T04:17:12.305Z,72.06
2018-01-30T04:18:12.289Z,72.63
2018-01-30T04:19:12.274Z,71.50
2018-01-30T04:20:12.304Z,71.88
2018-01-30T04:21:12.248Z,71.59
2018-01-30T04:22:12.236Z,71.50
2018-01-30T04:23:12.224Z,71.50
2018-01-30T04:24:12.235Z,71.88
2018-01-30T04:25:12.225Z,72.34
2018-01-30T04:26:12.192Z,72.34
2018-01-30T04:27:12.177Z,71.40
2018-01-30T04:28:12.164Z,71.50
2018-01-30T04:29:12.157Z,71.69
2018-01-30T04:30:12.165Z,71.59
2018-01-30T04:31:12.129Z,71.69
2018-01-30T04:32:12.123Z,71.78
2018-01-30T04:33:26.856Z,71.69
2018-01-30T04:34:12.098Z,71.88
2018-01-30T04:35:12.101Z,71.21
2018-01-30T04:36:12.065Z,71.88
2018-01-30T04:37:12.058Z,71.59
2018-01-30T04:38:12.040Z,71.69
2018-01-30T04:39:12.030Z,71.69
2018-01-30T04:40:12.020Z,71.78
2018-01-30T04:41:12.041Z,71.78
2018-01-30T04:42:12.005Z,71.59
2018-01-30T04:43:11.979Z,71.59
2018-01-30T04:44:11.982Z,71.69
2018-01-30T04:45:11.989Z,71.59
2018-01-30T04:46:11.953Z,71.50
2018-01-30T04:47:11.959Z,71.69
2018-01-30T04:48:11.926Z,71.69
2018-01-30T04:49:11.912Z,71.78
2018-01-30T04:50:11.912Z,71.78
2018-01-30T04:51:11.912Z,71.59
2018-01-30T04:52:11.886Z,71.78
2018-01-30T04:53:11.890Z,71.88
2018-01-30T04:54:11.852Z,71.50
2018-01-30T04:55:11.838Z,71.50
2018-01-30T04:56:11.848Z,71.97
2018-01-30T04:57:11.837Z,71.69
2018-01-30T04:58:11.809Z,71.69
2018-01-30T04:59:11.829Z,71.50
2018-01-30T05:00:11.782Z,71.50
2018-01-30T05:01:11.778Z,71.50
2018-01-30T05:02:11.780Z,71.50
2018-01-30T05:03:11.820Z,71.59
2018-01-30T05:04:11.730Z,71.69
2018-01-30T05:05:11.713Z,71.78
2018-01-30T05:06:11.709Z,71.78
2018-01-30T05:07:11.698Z,71.40
2018-01-30T05:08:11.686Z,71.40
2018-01-30T05:09:11.692Z,71.50
2018-01-30T05:10:11.669Z,71.40
2018-01-30T05:11:11.654Z,71.50
2018-01-30T05:12:11.627Z,71.59
2018-01-30T05:13:11.617Z,71.21
2018-01-30T05:14:11.628Z,71.12
2018-01-30T05:15:11.599Z,70.93
2018-01-30T05:16:11.601Z,71.02
2018-01-30T05:17:11.569Z,70.74
2018-01-30T05:18:11.591Z,70.83
2018-01-30T05:19:11.562Z,70.74
2018-01-30T05:20:11.536Z,70.74
2018-01-30T05:21:11.521Z,70.93
2018-01-30T05:22:11.507Z,70.74
2018-01-30T05:23:11.527Z,71.12
2018-01-30T05:24:11.493Z,70.74
2018-01-30T05:25:11.467Z,71.02
2018-01-30T05:26:11.491Z,70.93
2018-01-30T05:27:11.446Z,70.74
2018-01-30T05:28:11.436Z,70.83
2018-01-30T05:29:11.429Z,71.02
2018-01-30T05:30:11.416Z,70.93
2018-01-30T05:31:11.435Z,70.83
2018-01-30T05:32:11.404Z,70.74
2018-01-30T05:33:11.373Z,70.83
2018-01-30T05:34:11.393Z,70.93
2018-01-30T05:35:11.373Z,71.12
2018-01-30T05:36:11.339Z,70.74
2018-01-30T05:37:11.368Z,70.83
2018-01-30T05:38:11.312Z,70.74
2018-01-30T05:39:11.300Z,71.02
2018-01-30T05:40:11.301Z,71.12
2018-01-30T05:41:11.293Z,70.74
2018-01-30T05:42:11.267Z,70.74
2018-01-30T05:43:11.253Z,70.83
2018-01-30T05:44:11.264Z,70.74
2018-01-30T05:45:11.229Z,71.12
2018-01-30T05:46:11.236Z,71.31
2018-01-30T05:47:11.210Z,71.02
2018-01-30T05:48:11.198Z,71.40
2018-01-30T05:49:11.181Z,71.59
2018-01-30T05:50:11.201Z,71.50
2018-01-30T05:51:11.174Z,71.40
2018-01-30T05:52:11.164Z,71.50
2018-01-30T05:53:11.199Z,71.59
2018-01-30T05:54:11.122Z,71.50
2018-01-30T05:55:11.112Z,71.40
2018-01-30T05:56:11.104Z,71.59
2018-01-30T05:57:11.092Z,71.50
2018-01-30T05:58:11.076Z,71.59
2018-01-30T05:59:11.060Z,71.50
2018-01-30T06:00:11.051Z,71.50
2018-01-30T06:01:11.035Z,72.06
2018-01-30T06:02:11.025Z,71.97
2018-01-30T06:03:11.034Z,71.69
2018-01-30T06:04:11.007Z,71.69
2018-01-30T06:05:10.991Z,71.69
2018-01-30T06:06:11.021Z,71.59
2018-01-30T06:07:10.989Z,71.69
2018-01-30T06:08:10.962Z,71.97
2018-01-30T06:09:11.047Z,71.97
2018-01-30T06:10:10.943Z,71.97
2018-01-30T06:11:10.917Z,71.59
2018-01-30T06:12:10.903Z,71.69
2018-01-30T06:13:10.903Z,71.69
2018-01-30T06:14:10.900Z,71.50
2018-01-30T06:15:10.871Z,71.50
2018-01-30T06:16:10.857Z,71.69
2018-01-30T06:17:10.861Z,71.69
2018-01-30T06:18:10.866Z,71.69
2018-01-30T06:19:10.823Z,71.69
2018-01-30T06:20:10.808Z,71.69
2018-01-30T06:21:10.812Z,71.78
2018-01-30T06:22:10.785Z,71.78
2018-01-30T06:23:10.771Z,71.78
2018-01-30T06:24:10.777Z,71.69
2018-01-30T06:25:10.781Z,71.78
2018-01-30T06:26:10.779Z,71.69
2018-01-30T06:27:10.725Z,71.50
2018-01-30T06:28:10.709Z,71.78
2018-01-30T06:29:10.695Z,71.50
2018-01-30T06:30:10.766Z,71.59
2018-01-30T06:31:10.674Z,71.59
2018-01-30T06:32:10.664Z,71.69
2018-01-30T06:33:10.652Z,71.69
2018-01-30T06:34:10.638Z,71.50
2018-01-30T06:35:10.635Z,71.78
2018-01-30T06:36:10.691Z,71.50
2018-01-30T06:37:10.602Z,71.40
2018-01-30T06:38:10.592Z,71.50
2018-01-30T06:39:10.576Z,71.59
2018-01-30T06:40:10.575Z,72.25
2018-01-30T06:41:10.574Z,72.06
2018-01-30T06:42:10.588Z,72.25
2018-01-30T06:43:10.536Z,72.25
2018-01-30T06:44:10.519Z,72.25
2018-01-30T06:45:10.546Z,72.25
2018-01-30T06:46:10.499Z,72.34
2018-01-30T06:47:10.505Z,72.06
2018-01-30T06:48:10.471Z,72.25
2018-01-30T06:49:10.463Z,72.16
2018-01-30T06:50:10.440Z,72.16
2018-01-30T06:51:10.448Z,71.88
2018-01-30T06:52:10.431Z,72.06
2018-01-30T06:53:10.410Z,72.03
2018-01-30T06:54:10.396Z,72.06
2018-01-30T06:55:10.385Z,72.06
2018-01-30T06:56:10.371Z,72.03
2018-01-30T06:57:10.367Z,71.84
2018-01-30T06:58:10.349Z,72.41
2018-01-30T06:59:10.338Z,72.31
2018-01-30T07:00:10.322Z,72.34
2018-01-30T07:01:10.315Z,72.41
2018-01-30T07:02:10.309Z,72.22
2018-01-30T07:03:10.294Z,72.34
2018-01-30T07:04:10.273Z,72.41
2018-01-30T07:05:10.259Z,72.53
2018-01-30T07:06:10.257Z,72.60
2018-01-30T07:07:10.245Z,72.60
2018-01-30T07:08:10.252Z,72.50
2018-01-30T07:09:10.240Z,72.50
2018-01-30T07:10:10.203Z,72.63
2018-01-30T07:11:10.190Z,72.60
2018-01-30T07:12:10.191Z,72.22
2018-01-30T07:13:10.161Z,72.41
2018-01-30T07:14:10.153Z,72.50
2018-01-30T07:15:10.138Z,72.50
2018-01-30T07:16:10.126Z,72.69
2018-01-30T07:17:10.128Z,72.60
2018-01-30T07:18:10.118Z,72.31
2018-01-30T07:19:10.110Z,72.78
2018-01-30T07:20:10.080Z,72.50
2018-01-30T07:21:10.066Z,72.78
2018-01-30T07:22:10.088Z,72.97
2018-01-30T07:23:10.072Z,72.60
2018-01-30T07:24:10.036Z,72.50
2018-01-30T07:25:10.078Z,72.50
2018-01-30T07:26:10.012Z,72.88
2018-01-30T07:27:09.993Z,72.69
2018-01-30T07:28:09.987Z,72.60
2018-01-30T07:29:09.977Z,72.69
2018-01-30T07:30:09.978Z,72.60
2018-01-30T07:31:09.976Z,72.88
2018-01-30T07:32:09.980Z,72.69
2018-01-30T07:33:09.964Z,72.60
2018-01-30T07:34:09.928Z,72.88
2018-01-30T07:35:09.908Z,72.60
2018-01-30T07:36:09.905Z,72.69
2018-01-30T07:37:09.872Z,72.69
2018-01-30T07:38:09.868Z,72.50
2018-01-30T07:39:09.843Z,72.50
2018-01-30T07:40:09.840Z,72.88
2018-01-30T07:41:09.850Z,72.88
2018-01-30T07:42:09.811Z,72.50
2018-01-30T07:43:09.820Z,72.50
2018-01-30T07:44:09.780Z,72.82
2018-01-30T07:45:09.776Z,72.92
2018-01-30T07:46:09.776Z,72.92
2018-01-30T07:47:09.744Z,72.53
2018-01-30T07:48:09.736Z,72.53
2018-01-30T07:49:09.724Z,72.44
2018-01-30T07:50:09.713Z,72.53
2018-01-30T07:51:09.711Z,72.53
2018-01-30T07:52:09.684Z,72.44
2018-01-30T07:53:09.676Z,72.63
2018-01-30T07:54:09.667Z,72.53
2018-01-30T07:55:09.645Z,72.44
2018-01-30T07:56:09.644Z,72.53
2018-01-30T07:57:09.638Z,72.53
2018-01-30T07:58:09.614Z,72.63
2018-01-30T07:59:09.608Z,72.82
2018-01-30T08:00:09.590Z,72.82
2018-01-30T08:01:09.577Z,72.73
2018-01-30T08:02:09.573Z,72.34
2018-01-30T08:03:09.551Z,72.53
2018-01-30T08:04:09.578Z,72.73
2018-01-30T08:05:09.533Z,72.44
2018-01-30T08:06:09.520Z,72.34
2018-01-30T08:07:09.502Z,72.16
2018-01-30T08:08:09.506Z,71.97
2018-01-30T08:09:09.483Z,71.88
2018-01-30T08:10:09.470Z,72.16
2018-01-30T08:11:09.474Z,72.25
2018-01-30T08:12:09.445Z,72.25
2018-01-30T08:13:09.444Z,72.25
2018-01-30T08:14:09.427Z,72.25
2018-01-30T08:15:09.413Z,72.34
2018-01-30T08:16:09.398Z,72.34
2018-01-30T08:17:09.385Z,72.34
2018-01-30T08:18:09.380Z,72.34
2018-01-30T08:19:09.373Z,72.34
2018-01-30T08:20:09.352Z,72.34
2018-01-30T08:21:09.340Z,72.34
2018-01-30T08:22:09.331Z,72.06
2018-01-30T08:23:09.326Z,71.97
2018-01-30T08:24:09.321Z,72.25
2018-01-30T08:25:09.291Z,72.25
2018-01-30T08:26:09.294Z,71.59
2018-01-30T08:27:09.270Z,71.59
2018-01-30T08:28:09.257Z,71.59
2018-01-30T08:29:09.249Z,71.59
2018-01-30T08:30:09.239Z,71.59
2018-01-30T08:31:09.222Z,71.59
2018-01-30T08:32:09.233Z,71.59
2018-01-30T08:33:09.220Z,71.40
2018-01-30T08:34:09.186Z,71.59
2018-01-30T08:35:09.191Z,71.59
2018-01-30T08:36:09.188Z,71.72
2018-01-30T08:37:09.155Z,71.72
2018-01-30T08:38:09.150Z,71.62
2018-01-30T08:39:09.140Z,71.72
2018-01-30T08:40:09.134Z,71.72
2018-01-30T08:41:09.137Z,71.53
2018-01-30T08:42:09.125Z,71.62
2018-01-30T08:43:09.105Z,71.72
2018-01-30T08:44:09.079Z,72.00
2018-01-30T08:45:09.061Z,71.34
2018-01-30T08:46:09.077Z,71.44
2018-01-30T08:47:09.065Z,71.81
2018-01-30T08:48:09.032Z,71.62
2018-01-30T08:49:09.034Z,71.53
2018-01-30T08:50:09.010Z,71.25
2018-01-30T08:51:08.993Z,71.53
2018-01-30T08:52:09.002Z,71.44
2018-01-30T08:53:08.995Z,71.81
2018-01-30T08:54:08.964Z,71.34
2018-01-30T08:55:08.951Z,71.15
2018-01-30T08:56:08.956Z,71.15
2018-01-30T08:57:08.938Z,71.06
2018-01-30T08:58:08.954Z,71.15
2018-01-30T08:59:08.938Z,71.15
2018-01-30T09:00:08.906Z,71.62
2018-01-30T09:01:08.882Z,71.25
2018-01-30T09:02:08.871Z,70.87
2018-01-30T09:03:08.877Z,71.15
2018-01-30T09:04:08.866Z,71.25
2018-01-30T09:05:08.842Z,71.34
2018-01-30T09:06:08.849Z,71.34
2018-01-30T09:07:08.814Z,71.34
2018-01-30T09:08:08.823Z,71.25
2018-01-30T09:09:08.810Z,71.62
2018-01-30T09:10:08.793Z,71.53
2018-01-30T09:11:08.775Z,70.87
2018-01-30T09:12:08.763Z,71.25
2018-01-30T09:13:08.757Z,71.34
2018-01-30T09:14:08.752Z,71.25
2018-01-30T09:15:08.731Z,70.97
2018-01-30T09:16:08.746Z,71.34
2018-01-30T09:17:08.716Z,71.44
2018-01-30T09:18:08.699Z,71.25
2018-01-30T09:19:08.694Z,71.57
2018-01-30T09:20:08.672Z,71.38
2018-01-30T09:21:08.663Z,71.09
2018-01-30T09:22:08.667Z,70.62
2018-01-30T09:23:08.640Z,70.18
2018-01-30T09:24:08.635Z,70.75
2018-01-30T09:25:08.625Z,70.90
2018-01-30T09:26:08.626Z,72.80
2018-01-30T09:27:08.619Z,73.37
2018-01-30T09:28:08.600Z,72.61
2018-01-30T09:29:08.581Z,72.04
2018-01-30T09:30:08.582Z,72.42
2018-01-30T09:31:08.584Z,72.99
2018-01-30T09:32:08.563Z,72.42
2018-01-30T09:33:08.545Z,72.80
2018-01-30T09:34:08.541Z,73.27
2018-01-30T09:35:08.519Z,73.56
2018-01-30T09:36:08.520Z,73.18
2018-01-30T09:37:08.516Z,73.18
2018-01-30T09:38:08.496Z,73.46
2018-01-30T09:39:08.515Z,72.71
2018-01-30T09:40:08.504Z,73.46
2018-01-30T09:41:08.464Z,73.88
2018-01-30T09:42:08.495Z,73.94
2018-01-30T09:43:08.445Z,74.03
2018-01-30T09:44:08.446Z,74.03
2018-01-30T09:45:08.427Z,73.18
2018-01-30T09:46:08.435Z,73.46
2018-01-30T09:47:08.430Z,73.27
2018-01-30T09:48:08.397Z,72.89
2018-01-30T09:49:08.384Z,72.42
2018-01-30T09:50:08.371Z,72.52
2018-01-30T09:51:08.364Z,72.80
2018-01-30T09:52:08.351Z,72.52
2018-01-30T09:53:08.341Z,72.61
2018-01-30T09:54:08.338Z,72.23
2018-01-30T09:55:08.324Z,72.33
2018-01-30T09:56:08.311Z,72.23
2018-01-30T09:57:08.326Z,72.08
2018-01-30T09:58:08.299Z,72.27
2018-01-30T09:59:08.281Z,72.36
2018-01-30T10:00:08.273Z,72.45
2018-01-30T10:01:08.274Z,72.08
2018-01-30T10:02:08.253Z,72.64
2018-01-30T10:03:08.240Z,72.93
2018-01-30T10:04:08.238Z,72.36
2018-01-30T10:05:08.222Z,73.12
2018-01-30T10:06:08.213Z,72.36
2018-01-30T10:07:08.228Z,73.12
2018-01-30T10:08:08.197Z,73.31
2018-01-30T10:09:08.187Z,73.12
2018-01-30T10:10:08.172Z,73.60
2018-01-30T10:11:08.191Z,73.41
2018-01-30T10:12:08.150Z,73.50
2018-01-30T10:13:08.155Z,72.93
2018-01-30T10:14:08.129Z,73.41
2018-01-30T10:15:08.121Z,73.97
2018-01-30T10:16:08.113Z,74.54
2018-01-30T10:17:08.115Z,76.82
2018-01-30T10:18:08.089Z,74.73
2018-01-30T10:19:08.092Z,73.88
2018-01-30T10:20:08.083Z,73.79
2018-01-30T10:21:08.061Z,73.31
2018-01-30T10:22:08.065Z,73.31
2018-01-30T10:23:08.044Z,73.79
2018-01-30T10:24:08.031Z,75.59
2018-01-30T10:25:08.023Z,74.92
2018-01-30T10:26:08.008Z,73.60
2018-01-30T10:27:08.018Z,73.97
2018-01-30T10:28:08.016Z,74.07
2018-01-30T10:29:07.995Z,73.22
2018-01-30T10:30:07.970Z,73.60
2018-01-30T10:31:07.966Z,74.64
2018-01-30T10:32:07.949Z,75.02
2018-01-30T10:33:07.935Z,74.92
2018-01-30T10:34:07.934Z,74.73
2018-01-30T10:35:07.923Z,73.97
2018-01-30T10:36:07.910Z,74.73
2018-01-30T10:37:07.900Z,74.26
2018-01-30T10:38:07.886Z,74.26
2018-01-30T10:39:07.878Z,74.83
2018-01-30T10:40:07.868Z,74.64
2018-01-30T10:41:07.882Z,74.26
2018-01-30T10:42:07.852Z,74.49
2018-01-30T10:43:07.841Z,75.62
2018-01-30T10:44:07.830Z,76.20
2018-01-30T10:45:07.819Z,77.71
2018-01-30T10:46:07.806Z,79.52
2018-01-30T10:47:07.821Z,81.70
2018-01-30T10:48:07.791Z,78.38
2018-01-30T10:49:07.783Z,77.81
2018-01-30T10:50:07.772Z,76.95
2018-01-30T10:51:07.758Z,80.08
2018-01-30T10:52:07.751Z,83.40
2018-01-30T10:53:07.750Z,83.97
2018-01-30T10:54:07.737Z,82.08
2018-01-30T10:55:07.732Z,80.56
2018-01-30T10:56:07.724Z,80.27
2018-01-30T10:57:07.706Z,82.93
2018-01-30T10:58:07.694Z,77.81
2018-01-30T10:59:07.694Z,81.79
2018-01-30T11:00:07.680Z,80.75
2018-01-30T11:01:07.668Z,78.80
2018-01-30T11:02:07.671Z,78.09
2018-01-30T11:03:07.655Z,77.52
2018-01-30T11:04:07.642Z,78.95
2018-01-30T11:05:07.631Z,77.62
2018-01-30T11:06:07.624Z,81.60
2018-01-30T11:07:07.623Z,79.46
2018-01-30T11:08:07.604Z,84.30
2018-01-30T11:09:07.598Z,79.84
2018-01-30T11:10:07.588Z,78.61
2018-01-30T11:11:07.582Z,80.84
2018-01-30T11:12:07.570Z,80.56
2018-01-30T11:13:07.570Z,79.61
2018-01-30T11:14:07.557Z,78.03
2018-01-30T11:15:07.589Z,76.90
2018-01-30T11:16:07.534Z,78.51
2018-01-30T11:17:07.526Z,80.32
2018-01-30T11:18:07.517Z,82.84
2018-01-30T11:19:07.516Z,81.32
2018-01-30T11:20:07.512Z,80.27
2018-01-30T11:21:07.493Z,79.99
2018-01-30T11:22:07.565Z,77.05
2018-01-30T11:23:07.473Z,78.66
2018-01-30T11:24:07.461Z,76.29
2018-01-30T11:25:07.475Z,75.34
2018-01-30T11:26:07.461Z,79.17
2018-01-30T11:27:07.457Z,78.09
2018-01-30T11:28:07.436Z,77.47
2018-01-30T11:29:07.418Z,79.27
2018-01-30T11:30:07.414Z,78.80
2018-01-30T11:31:07.400Z,78.42
2018-01-30T11:32:07.391Z,82.40
2018-01-30T11:33:07.402Z,84.30
2018-01-30T11:34:07.370Z,83.26
2018-01-30T11:35:07.362Z,81.93
2018-01-30T11:36:07.351Z,82.69
2018-01-30T11:37:07.344Z,81.07
2018-01-30T11:38:07.331Z,83.36
2018-01-30T11:39:07.336Z,81.93
2018-01-30T11:40:07.320Z,86.20
2018-01-30T11:41:07.319Z,86.30
2018-01-30T11:42:07.307Z,82.12
2018-01-30T11:43:07.287Z,86.68
2018-01-30T11:44:07.284Z,86.01
2018-01-30T11:45:07.296Z,92.85
2018-01-30T11:46:07.328Z,87.62
2018-01-30T11:47:07.254Z,82.69
2018-01-30T11:48:07.283Z,82.21
2018-01-30T11:49:07.237Z,86.01
2018-01-30T11:50:07.228Z,86.96
2018-01-30T11:51:07.224Z,96.26
2018-01-30T11:52:07.212Z,89.14
2018-01-30T11:53:07.233Z,89.43
2018-01-30T11:54:07.199Z,87.34
2018-01-30T11:55:07.181Z,94.84
2018-01-30T11:56:07.176Z,96.55
2018-01-30T11:57:07.185Z,86.68
2018-01-30T11:58:07.168Z,88.86
2018-01-30T11:59:07.147Z,85.35
2018-01-30T12:00:07.156Z,89.14
2018-01-30T12:01:07.151Z,92.99
2018-01-30T12:02:07.118Z,83.83
2018-01-30T12:03:07.133Z,88.57
2018-01-30T12:04:07.113Z,86.20
2018-01-30T12:05:07.098Z,90.09
2018-01-30T12:06:07.079Z,90.00
2018-01-30T12:07:07.089Z,82.69
2018-01-30T12:08:07.074Z,91.89
2018-01-30T12:09:07.063Z,87.72
2018-01-30T12:10:07.067Z,86.30
2018-01-30T12:11:07.059Z,91.24
2018-01-30T12:12:07.033Z,82.88
2018-01-30T12:13:07.019Z,84.40
2018-01-30T12:14:07.004Z,88.95
2018-01-30T12:15:06.998Z,84.21
2018-01-30T12:16:06.994Z,94.74
2018-01-30T12:17:06.979Z,90.85
2018-01-30T12:18:06.974Z,97.50
2018-01-30T12:19:06.963Z,89.62
2018-01-30T12:20:06.955Z,91.52
2018-01-30T12:21:06.946Z,99.68
2018-01-30T12:22:06.947Z,92.47
2018-01-30T12:23:06.926Z,94.13
2018-01-30T12:24:06.917Z,97.64
2018-01-30T12:25:06.922Z,94.42
2018-01-30T12:26:06.900Z,97.17
2018-01-30T12:27:06.891Z,96.03
2018-01-30T12:28:06.884Z,95.84
2018-01-30T12:29:06.887Z,99.99
2018-01-30T12:30:06.869Z,98.50
2018-01-30T12:31:06.867Z,93.08
2018-01-30T12:32:06.863Z,96.69
2018-01-30T12:33:06.842Z,89.09
2018-01-30T12:34:06.848Z,96.60
2018-01-30T12:35:06.836Z,92.51
2018-01-30T12:36:06.817Z,99.99
2018-01-30T12:37:06.812Z,94.79
2018-01-30T12:38:06.823Z,93.65
2018-01-30T12:39:06.804Z,92.90
2018-01-30T12:40:06.787Z,92.99
2018-01-30T12:41:06.793Z,89.38
2018-01-30T12:42:06.772Z,96.03
2018-01-30T12:43:06.761Z,99.44
2018-01-30T12:44:06.757Z,99.99
2018-01-30T12:45:06.752Z,94.42
2018-01-30T12:46:06.752Z,99.99
2018-01-30T12:47:06.762Z,99.26
2018-01-30T12:48:06.738Z,97.27
2018-01-30T12:49:06.713Z,99.99
2018-01-30T12:50:06.703Z,95.27
2018-01-30T12:51:06.722Z,99.99
2018-01-30T12:52:06.711Z,99.99
2018-01-30T12:53:06.685Z,98.26
2018-01-30T12:54:06.725Z,99.99
2018-01-30T12:55:06.683Z,98.26
2018-01-30T12:56:06.668Z,99.99
2018-01-30T12:57:06.659Z,99.99
2018-01-30T12:58:06.661Z,99.99
2018-01-30T12:59:06.658Z,99.99
2018-01-30T13:00:06.648Z,97.12
2018-01-30T13:01:06.636Z,98.07
2018-01-30T13:02:06.649Z,96.45
2018-01-30T13:03:06.610Z,99.99
2018-01-30T13:04:06.602Z,99.99
2018-01-30T13:05:06.593Z,99.99
2018-01-30T13:06:06.602Z,99.99
2018-01-30T13:07:06.609Z,99.99
2018-01-30T13:08:06.575Z,99.99
2018-01-30T13:09:06.582Z,99.99
2018-01-30T13:10:06.569Z,99.99
2018-01-30T13:11:06.559Z,99.99
2018-01-30T13:12:06.542Z,99.99
2018-01-30T13:13:06.540Z,97.64
2018-01-30T13:14:06.546Z,99.99
2018-01-30T13:15:06.530Z,99.99
2018-01-30T13:16:06.531Z,99.99
2018-01-30T13:17:06.547Z,99.99
2018-01-30T13:18:06.506Z,99.99
2018-01-30T13:19:06.496Z,99.99
2018-01-30T13:20:06.487Z,99.16
2018-01-30T13:21:06.483Z,99.99
2018-01-30T13:22:06.496Z,99.99
2018-01-30T13:23:06.496Z,99.99
2018-01-30T13:24:06.497Z,99.99
2018-01-30T13:25:06.452Z,99.99
2018-01-30T13:26:06.447Z,99.99
2018-01-30T13:27:06.446Z,99.99